sensor_id;sensor_type;location;lat;lon;timestamp;temperature;humidity
35027;DHT22;60696;51.426;6.934;2023-02-28T00:00:31;1.10;99.90
35027;DHT22;60696;51.426;6.934;2023-02-28T00:02:57;1.10;99.90
35027;DHT22;60696;51.426;6.934;2023-02-28T00:05:24;1.10;99.90
35027;DHT22;60696;51.426;6.934;2023-02-28T00:07:50;1.10;99.90
35027;DHT22;60696;51.426;6.934;2023-02-28T00:10:24;1.20;99.90
35027;DHT22;60696;51.426;6.934;2023-02-28T00:12:54;1.10;99.90
35027;DHT22;60696;51.426;6.934;2023-02-28T00:15:23;1.10;99.90
35027;DHT22;60696;51.426;6.934;2023-02-28T00:17:49;1.10;99.90
35027;DHT22;60696;51.426;6.934;2023-02-28T00:20:17;1.10;99.90
35027;DHT22;60696;51.426;6.934;2023-02-28T00:22:46;1.00;99.90
35027;DHT22;60696;51.426;6.934;2023-02-28T00:25:16;0.90;99.90
35027;DHT22;60696;51.426;6.934;2023-02-28T00:27:45;1.00;99.90
35027;DHT22;60696;51.426;6.934;2023-02-28T00:30:15;0.90;99.90
35027;DHT22;60696;51.426;6.934;2023-02-28T00:32:42;0.90;99.90
35027;DHT22;60696;51.426;6.934;2023-02-28T00:35:09;1.00;99.90
35027;DHT22;60696;51.426;6.934;2023-02-28T00:37:38;1.10;99.90
35027;DHT22;60696;51.426;6.934;2023-02-28T00:40:05;1.20;99.90
35027;DHT22;60696;51.426;6.934;2023-02-28T00:42:34;1.20;99.90
35027;DHT22;60696;51.426;6.934;2023-02-28T00:45:18;1.20;99.90
35027;DHT22;60696;51.426;6.934;2023-02-28T00:47:44;1.00;99.90
35027;DHT22;60696;51.426;6.934;2023-02-28T00:50:12;1.00;99.90
35027;DHT22;60696;51.426;6.934;2023-02-28T00:52:37;1.00;99.90
35027;DHT22;60696;51.426;6.934;2023-02-28T00:55:06;1.00;99.90
35027;DHT22;60696;51.426;6.934;2023-02-28T00:57:32;1.00;99.90
35027;DHT22;60696;51.426;6.934;2023-02-28T01:00:01;1.00;99.90
35027;DHT22;60696;51.426;6.934;2023-02-28T01:02:29;0.90;99.90
35027;DHT22;60696;51.426;6.934;2023-02-28T01:04:55;0.90;99.90
35027;DHT22;60696;51.426;6.934;2023-02-28T01:07:22;0.90;99.90
35027;DHT22;60696;51.426;6.934;2023-02-28T01:09:48;0.90;99.90
35027;DHT22;60696;51.426;6.934;2023-02-28T01:12:13;0.90;99.90
35027;DHT22;60696;51.426;6.934;2023-02-28T01:14:39;0.90;99.90
35027;DHT22;60696;51.426;6.934;2023-02-28T01:17:08;0.90;99.90
35027;DHT22;60696;51.426;6.934;2023-02-28T01:19:36;0.90;99.90
35027;DHT22;60696;51.426;6.934;2023-02-28T01:22:05;0.80;99.90
35027;DHT22;60696;51.426;6.934;2023-02-28T01:24:31;0.80;99.90
35027;DHT22;60696;51.426;6.934;2023-02-28T01:26:59;0.70;99.90
35027;DHT22;60696;51.426;6.934;2023-02-28T01:29:25;0.70;99.90
35027;DHT22;60696;51.426;6.934;2023-02-28T01:31:50;0.60;99.90
35027;DHT22;60696;51.426;6.934;2023-02-28T01:34:16;0.50;99.90
35027;DHT22;60696;51.426;6.934;2023-02-28T01:36:44;0.40;99.90
35027;DHT22;60696;51.426;6.934;2023-02-28T01:39:10;0.40;99.90
35027;DHT22;60696;51.426;6.934;2023-02-28T01:41:35;0.40;99.90
35027;DHT22;60696;51.426;6.934;2023-02-28T01:47:08;0.50;99.90
35027;DHT22;60696;51.426;6.934;2023-02-28T01:49:34;0.40;99.90
35027;DHT22;60696;51.426;6.934;2023-02-28T01:52:00;0.40;99.90
35027;DHT22;60696;51.426;6.934;2023-02-28T01:54:28;0.40;99.90
35027;DHT22;60696;51.426;6.934;2023-02-28T01:57:05;0.40;99.90
35027;DHT22;60696;51.426;6.934;2023-02-28T01:59:53;0.30;99.90
35027;DHT22;60696;51.426;6.934;2023-02-28T02:02:21;0.30;99.90
35027;DHT22;60696;51.426;6.934;2023-02-28T02:04:59;0.10;99.90
35027;DHT22;60696;51.426;6.934;2023-02-28T02:07:30;0.20;99.90
35027;DHT22;60696;51.426;6.934;2023-02-28T02:10:06;0.10;99.90
35027;DHT22;60696;51.426;6.934;2023-02-28T02:15:43;0.00;99.90
35027;DHT22;60696;51.426;6.934;2023-02-28T02:18:31;-0.10;99.90
35027;DHT22;60696;51.426;6.934;2023-02-28T02:27:04;-0.20;99.90
35027;DHT22;60696;51.426;6.934;2023-02-28T02:43:44;-0.60;99.90
35027;DHT22;60696;51.426;6.934;2023-02-28T02:46:21;-0.50;99.90
35027;DHT22;60696;51.426;6.934;2023-02-28T02:48:48;-0.50;99.90
35027;DHT22;60696;51.426;6.934;2023-02-28T02:51:17;-0.50;99.90
35027;DHT22;60696;51.426;6.934;2023-02-28T02:53:56;-0.60;99.90
35027;DHT22;60696;51.426;6.934;2023-02-28T02:56:26;-0.60;99.90
35027;DHT22;60696;51.426;6.934;2023-02-28T02:58:57;-0.60;99.90
35027;DHT22;60696;51.426;6.934;2023-02-28T03:01:26;-0.70;99.90
35027;DHT22;60696;51.426;6.934;2023-02-28T03:03:56;-0.70;99.90
35027;DHT22;60696;51.426;6.934;2023-02-28T03:06:23;-0.60;99.90
35027;DHT22;60696;51.426;6.934;2023-02-28T03:08:49;-0.50;99.90
35027;DHT22;60696;51.426;6.934;2023-02-28T03:11:15;-0.50;99.90
35027;DHT22;60696;51.426;6.934;2023-02-28T03:22:19;-0.50;99.90
35027;DHT22;60696;51.426;6.934;2023-02-28T03:25:08;-0.50;99.90
35027;DHT22;60696;51.426;6.934;2023-02-28T03:27:41;-0.50;99.90
35027;DHT22;60696;51.426;6.934;2023-02-28T03:32:42;-0.60;99.90
35027;DHT22;60696;51.426;6.934;2023-02-28T03:35:19;-0.60;99.90
35027;DHT22;60696;51.426;6.934;2023-02-28T03:37:52;-0.60;99.90
35027;DHT22;60696;51.426;6.934;2023-02-28T03:40:24;-0.60;99.90
35027;DHT22;60696;51.426;6.934;2023-02-28T03:42:54;-0.50;99.90
35027;DHT22;60696;51.426;6.934;2023-02-28T03:45:25;-0.50;99.90
35027;DHT22;60696;51.426;6.934;2023-02-28T03:48:17;-0.50;99.90
35027;DHT22;60696;51.426;6.934;2023-02-28T03:50:47;-0.60;99.90
35027;DHT22;60696;51.426;6.934;2023-02-28T03:53:36;-0.70;99.90
35027;DHT22;60696;51.426;6.934;2023-02-28T03:56:13;-0.70;99.90
35027;DHT22;60696;51.426;6.934;2023-02-28T03:58:57;-0.60;99.90
35027;DHT22;60696;51.426;6.934;2023-02-28T04:01:34;-0.60;99.90
35027;DHT22;60696;51.426;6.934;2023-02-28T04:04:01;-0.60;99.90
35027;DHT22;60696;51.426;6.934;2023-02-28T04:06:32;-0.60;99.90
35027;DHT22;60696;51.426;6.934;2023-02-28T04:08:58;-0.60;99.90
35027;DHT22;60696;51.426;6.934;2023-02-28T04:11:41;-0.60;99.90
35027;DHT22;60696;51.426;6.934;2023-02-28T04:14:08;-0.60;99.90
35027;DHT22;60696;51.426;6.934;2023-02-28T04:16:40;-0.60;99.90
35027;DHT22;60696;51.426;6.934;2023-02-28T04:19:07;-0.60;99.90
35027;DHT22;60696;51.426;6.934;2023-02-28T04:24:08;-0.60;99.90
35027;DHT22;60696;51.426;6.934;2023-02-28T04:26:40;-0.70;99.90
35027;DHT22;60696;51.426;6.934;2023-02-28T04:29:07;-0.60;99.90
35027;DHT22;60696;51.426;6.934;2023-02-28T04:31:33;-0.70;99.90
35027;DHT22;60696;51.426;6.934;2023-02-28T04:34:00;-0.70;99.90
35027;DHT22;60696;51.426;6.934;2023-02-28T04:36:26;-0.70;99.90
35027;DHT22;60696;51.426;6.934;2023-02-28T04:38:52;-0.80;99.90
35027;DHT22;60696;51.426;6.934;2023-02-28T04:41:21;-0.90;99.90
35027;DHT22;60696;51.426;6.934;2023-02-28T04:43:46;-0.90;99.90
35027;DHT22;60696;51.426;6.934;2023-02-28T04:46:12;-0.90;99.90
35027;DHT22;60696;51.426;6.934;2023-02-28T04:48:39;-0.90;99.90
35027;DHT22;60696;51.426;6.934;2023-02-28T04:51:13;-0.90;99.90
35027;DHT22;60696;51.426;6.934;2023-02-28T04:53:40;-0.90;99.90
35027;DHT22;60696;51.426;6.934;2023-02-28T04:56:06;-0.90;99.90
35027;DHT22;60696;51.426;6.934;2023-02-28T04:58:33;-0.90;99.90
35027;DHT22;60696;51.426;6.934;2023-02-28T05:01:15;-0.90;99.90
35027;DHT22;60696;51.426;6.934;2023-02-28T05:03:42;-0.90;99.90
35027;DHT22;60696;51.426;6.934;2023-02-28T05:06:09;-0.90;99.90
35027;DHT22;60696;51.426;6.934;2023-02-28T05:08:38;-0.90;99.90
35027;DHT22;60696;51.426;6.934;2023-02-28T05:11:05;-0.90;99.90
35027;DHT22;60696;51.426;6.934;2023-02-28T05:13:31;-0.80;99.90
35027;DHT22;60696;51.426;6.934;2023-02-28T05:15:57;-0.80;99.90
35027;DHT22;60696;51.426;6.934;2023-02-28T05:18:25;-0.90;99.90
35027;DHT22;60696;51.426;6.934;2023-02-28T05:21:00;-0.90;99.90
35027;DHT22;60696;51.426;6.934;2023-02-28T05:23:28;-0.90;99.90
35027;DHT22;60696;51.426;6.934;2023-02-28T05:26:00;-1.00;99.90
35027;DHT22;60696;51.426;6.934;2023-02-28T05:28:25;-1.00;99.90
35027;DHT22;60696;51.426;6.934;2023-02-28T05:30:51;-1.00;99.90
35027;DHT22;60696;51.426;6.934;2023-02-28T05:33:16;-1.00;99.90
35027;DHT22;60696;51.426;6.934;2023-02-28T05:35:42;-1.10;99.90
35027;DHT22;60696;51.426;6.934;2023-02-28T05:38:08;-1.10;99.90
35027;DHT22;60696;51.426;6.934;2023-02-28T05:40:34;-1.10;99.90
35027;DHT22;60696;51.426;6.934;2023-02-28T05:43:00;-1.10;99.90
35027;DHT22;60696;51.426;6.934;2023-02-28T05:45:26;-1.10;99.90
35027;DHT22;60696;51.426;6.934;2023-02-28T05:47:54;-1.00;99.90
35027;DHT22;60696;51.426;6.934;2023-02-28T05:50:20;-1.00;99.90
35027;DHT22;60696;51.426;6.934;2023-02-28T05:52:52;-1.10;99.90
35027;DHT22;60696;51.426;6.934;2023-02-28T05:55:18;-1.10;99.90
35027;DHT22;60696;51.426;6.934;2023-02-28T05:57:43;-1.10;99.90
35027;DHT22;60696;51.426;6.934;2023-02-28T06:00:09;-1.10;99.90
35027;DHT22;60696;51.426;6.934;2023-02-28T06:02:35;-1.20;99.90
35027;DHT22;60696;51.426;6.934;2023-02-28T06:05:01;-1.20;99.90
35027;DHT22;60696;51.426;6.934;2023-02-28T06:07:27;-1.20;99.90
35027;DHT22;60696;51.426;6.934;2023-02-28T06:09:57;-1.20;99.90
35027;DHT22;60696;51.426;6.934;2023-02-28T06:12:23;-1.30;99.90
35027;DHT22;60696;51.426;6.934;2023-02-28T06:14:51;-1.30;99.90
35027;DHT22;60696;51.426;6.934;2023-02-28T06:17:17;-1.20;99.90
35027;DHT22;60696;51.426;6.934;2023-02-28T06:19:43;-1.30;99.90
35027;DHT22;60696;51.426;6.934;2023-02-28T06:22:08;-1.20;99.90
35027;DHT22;60696;51.426;6.934;2023-02-28T06:24:37;-1.10;99.90
35027;DHT22;60696;51.426;6.934;2023-02-28T06:27:05;-1.10;99.90
35027;DHT22;60696;51.426;6.934;2023-02-28T06:29:34;-1.00;99.90
35027;DHT22;60696;51.426;6.934;2023-02-28T06:32:00;-1.00;99.90
35027;DHT22;60696;51.426;6.934;2023-02-28T06:34:26;-1.00;99.90
35027;DHT22;60696;51.426;6.934;2023-02-28T06:36:52;-1.00;99.90
35027;DHT22;60696;51.426;6.934;2023-02-28T06:39:20;-1.00;99.90
35027;DHT22;60696;51.426;6.934;2023-02-28T06:41:46;-1.10;99.90
35027;DHT22;60696;51.426;6.934;2023-02-28T06:44:18;-1.10;99.90
35027;DHT22;60696;51.426;6.934;2023-02-28T06:46:45;-1.10;99.90
35027;DHT22;60696;51.426;6.934;2023-02-28T06:49:13;-1.00;99.90
35027;DHT22;60696;51.426;6.934;2023-02-28T06:51:47;-1.00;99.90
35027;DHT22;60696;51.426;6.934;2023-02-28T06:54:13;-1.00;99.90
35027;DHT22;60696;51.426;6.934;2023-02-28T06:56:41;-0.90;99.90
35027;DHT22;60696;51.426;6.934;2023-02-28T06:59:07;-0.80;99.90
35027;DHT22;60696;51.426;6.934;2023-02-28T07:01:32;-0.80;99.90
35027;DHT22;60696;51.426;6.934;2023-02-28T07:03:59;-0.70;99.90
35027;DHT22;60696;51.426;6.934;2023-02-28T07:06:31;-0.60;99.90
35027;DHT22;60696;51.426;6.934;2023-02-28T07:08:56;-0.60;99.90
35027;DHT22;60696;51.426;6.934;2023-02-28T07:11:25;-0.50;99.90
35027;DHT22;60696;51.426;6.934;2023-02-28T07:13:56;-0.40;99.90
35027;DHT22;60696;51.426;6.934;2023-02-28T07:16:23;-0.40;99.90
35027;DHT22;60696;51.426;6.934;2023-02-28T07:18:55;-0.50;99.90
35027;DHT22;60696;51.426;6.934;2023-02-28T07:21:21;-0.40;99.90
35027;DHT22;60696;51.426;6.934;2023-02-28T07:23:47;-0.30;99.90
35027;DHT22;60696;51.426;6.934;2023-02-28T07:26:15;-0.30;99.90
35027;DHT22;60696;51.426;6.934;2023-02-28T07:28:43;-0.30;99.90
35027;DHT22;60696;51.426;6.934;2023-02-28T07:31:10;-0.20;99.90
35027;DHT22;60696;51.426;6.934;2023-02-28T07:33:39;0.00;99.90
35027;DHT22;60696;51.426;6.934;2023-02-28T07:36:07;0.10;99.90
35027;DHT22;60696;51.426;6.934;2023-02-28T07:38:37;0.00;99.90
35027;DHT22;60696;51.426;6.934;2023-02-28T07:41:03;0.10;99.90
35027;DHT22;60696;51.426;6.934;2023-02-28T07:43:33;0.20;99.90
35027;DHT22;60696;51.426;6.934;2023-02-28T07:46:09;0.30;99.90
35027;DHT22;60696;51.426;6.934;2023-02-28T07:48:41;0.40;99.90
35027;DHT22;60696;51.426;6.934;2023-02-28T07:51:06;0.40;99.90
35027;DHT22;60696;51.426;6.934;2023-02-28T07:53:32;0.40;99.90
35027;DHT22;60696;51.426;6.934;2023-02-28T07:56:02;0.30;99.90
35027;DHT22;60696;51.426;6.934;2023-02-28T07:58:31;0.50;99.90
35027;DHT22;60696;51.426;6.934;2023-02-28T08:00:57;0.60;99.90
35027;DHT22;60696;51.426;6.934;2023-02-28T08:03:23;0.70;99.90
35027;DHT22;60696;51.426;6.934;2023-02-28T08:05:49;1.50;99.90
35027;DHT22;60696;51.426;6.934;2023-02-28T08:08:15;3.20;99.90
35027;DHT22;60696;51.426;6.934;2023-02-28T08:10:41;4.00;99.90
35027;DHT22;60696;51.426;6.934;2023-02-28T08:13:09;5.00;98.40
35027;DHT22;60696;51.426;6.934;2023-02-28T08:15:35;4.50;96.50
35027;DHT22;60696;51.426;6.934;2023-02-28T08:18:01;4.10;98.20
35027;DHT22;60696;51.426;6.934;2023-02-28T08:20:27;4.10;98.50
35027;DHT22;60696;51.426;6.934;2023-02-28T08:22:53;4.10;99.00
35027;DHT22;60696;51.426;6.934;2023-02-28T08:25:24;4.70;98.60
35027;DHT22;60696;51.426;6.934;2023-02-28T08:27:53;5.30;93.80
35027;DHT22;60696;51.426;6.934;2023-02-28T08:30:18;5.60;90.00
35027;DHT22;60696;51.426;6.934;2023-02-28T08:32:49;5.80;88.50
35027;DHT22;60696;51.426;6.934;2023-02-28T08:35:15;6.50;83.30
35027;DHT22;60696;51.426;6.934;2023-02-28T08:37:40;6.30;86.40
35027;DHT22;60696;51.426;6.934;2023-02-28T08:40:10;8.10;78.40
35027;DHT22;60696;51.426;6.934;2023-02-28T08:42:36;9.40;64.70
35027;DHT22;60696;51.426;6.934;2023-02-28T08:45:01;9.90;63.00
35027;DHT22;60696;51.426;6.934;2023-02-28T08:47:30;10.40;59.40
35027;DHT22;60696;51.426;6.934;2023-02-28T08:49:58;10.80;56.80
35027;DHT22;60696;51.426;6.934;2023-02-28T08:52:24;11.70;52.00
35027;DHT22;60696;51.426;6.934;2023-02-28T08:54:49;10.70;49.80
35027;DHT22;60696;51.426;6.934;2023-02-28T08:57:18;11.40;52.00
35027;DHT22;60696;51.426;6.934;2023-02-28T08:59:49;11.90;48.20
35027;DHT22;60696;51.426;6.934;2023-02-28T09:02:18;11.30;49.40
35027;DHT22;60696;51.426;6.934;2023-02-28T09:04:47;12.20;46.50
35027;DHT22;60696;51.426;6.934;2023-02-28T09:07:21;11.50;48.00
35027;DHT22;60696;51.426;6.934;2023-02-28T09:09:50;12.10;44.70
35027;DHT22;60696;51.426;6.934;2023-02-28T09:12:25;12.20;45.10
35027;DHT22;60696;51.426;6.934;2023-02-28T09:15:00;10.90;44.70
35027;DHT22;60696;51.426;6.934;2023-02-28T09:17:26;11.50;46.20
35027;DHT22;60696;51.426;6.934;2023-02-28T09:19:54;13.40;45.30
35027;DHT22;60696;51.426;6.934;2023-02-28T09:22:20;12.30;42.40
35027;DHT22;60696;51.426;6.934;2023-02-28T09:24:45;12.20;46.20
35027;DHT22;60696;51.426;6.934;2023-02-28T09:27:11;10.50;43.60
35027;DHT22;60696;51.426;6.934;2023-02-28T09:29:37;9.70;46.00
35027;DHT22;60696;51.426;6.934;2023-02-28T09:32:03;10.40;46.10
35027;DHT22;60696;51.426;6.934;2023-02-28T09:34:31;10.50;45.30
35027;DHT22;60696;51.426;6.934;2023-02-28T09:36:56;11.10;45.20
35027;DHT22;60696;51.426;6.934;2023-02-28T09:39:22;12.50;42.80
35027;DHT22;60696;51.426;6.934;2023-02-28T09:41:53;13.00;41.70
35027;DHT22;60696;51.426;6.934;2023-02-28T09:44:38;12.20;41.40
35027;DHT22;60696;51.426;6.934;2023-02-28T09:49:46;9.90;45.90
35027;DHT22;60696;51.426;6.934;2023-02-28T09:52:20;10.80;44.30
35027;DHT22;60696;51.426;6.934;2023-02-28T09:54:49;9.60;43.70
35027;DHT22;60696;51.426;6.934;2023-02-28T09:57:34;8.40;45.90
35027;DHT22;60696;51.426;6.934;2023-02-28T10:05:14;10.60;44.10
35027;DHT22;60696;51.426;6.934;2023-02-28T10:10:41;9.70;43.20
35027;DHT22;60696;51.426;6.934;2023-02-28T10:15:42;9.50;44.90
35027;DHT22;60696;51.426;6.934;2023-02-28T10:18:13;9.60;44.50
35027;DHT22;60696;51.426;6.934;2023-02-28T10:20:40;9.90;43.10
35027;DHT22;60696;51.426;6.934;2023-02-28T10:26:14;8.90;46.40
35027;DHT22;60696;51.426;6.934;2023-02-28T10:28:44;9.80;44.90
35027;DHT22;60696;51.426;6.934;2023-02-28T10:31:20;9.60;43.40
35027;DHT22;60696;51.426;6.934;2023-02-28T10:33:46;8.40;46.30
35027;DHT22;60696;51.426;6.934;2023-02-28T10:36:16;7.60;47.80
35027;DHT22;60696;51.426;6.934;2023-02-28T10:38:43;7.30;49.40
35027;DHT22;60696;51.426;6.934;2023-02-28T10:41:31;7.30;48.90
35027;DHT22;60696;51.426;6.934;2023-02-28T10:44:23;7.40;47.80
35027;DHT22;60696;51.426;6.934;2023-02-28T10:46:50;6.70;49.70
35027;DHT22;60696;51.426;6.934;2023-02-28T10:49:25;6.00;51.50
35027;DHT22;60696;51.426;6.934;2023-02-28T10:51:57;4.70;54.60
35027;DHT22;60696;51.426;6.934;2023-02-28T10:54:30;5.20;53.60
35027;DHT22;60696;51.426;6.934;2023-02-28T10:57:21;5.20;54.40
35027;DHT22;60696;51.426;6.934;2023-02-28T10:59:51;5.50;53.50
35027;DHT22;60696;51.426;6.934;2023-02-28T11:02:36;5.90;51.60
35027;DHT22;60696;51.426;6.934;2023-02-28T11:05:33;5.70;50.60
35027;DHT22;60696;51.426;6.934;2023-02-28T11:08:19;5.30;50.60
35027;DHT22;60696;51.426;6.934;2023-02-28T11:10:47;7.20;50.00
35027;DHT22;60696;51.426;6.934;2023-02-28T11:13:17;8.40;47.60
35027;DHT22;60696;51.426;6.934;2023-02-28T11:15:57;9.80;44.20
35027;DHT22;60696;51.426;6.934;2023-02-28T11:19:06;8.70;44.60
35027;DHT22;60696;51.426;6.934;2023-02-28T11:21:33;9.00;44.40
35027;DHT22;60696;51.426;6.934;2023-02-28T11:24:30;8.70;43.70
35027;DHT22;60696;51.426;6.934;2023-02-28T11:26:57;7.30;45.70
35027;DHT22;60696;51.426;6.934;2023-02-28T11:29:27;6.50;48.60
35027;DHT22;60696;51.426;6.934;2023-02-28T11:32:23;8.30;47.30
35027;DHT22;60696;51.426;6.934;2023-02-28T11:37:37;8.50;46.90
35027;DHT22;60696;51.426;6.934;2023-02-28T11:40:13;8.00;46.50
35027;DHT22;60696;51.426;6.934;2023-02-28T11:48:13;7.90;46.60
35027;DHT22;60696;51.426;6.934;2023-02-28T11:53:55;6.10;50.40
35027;DHT22;60696;51.426;6.934;2023-02-28T12:02:28;4.80;53.10
35027;DHT22;60696;51.426;6.934;2023-02-28T12:10:25;4.60;54.30
35027;DHT22;60696;51.426;6.934;2023-02-28T12:15:57;5.60;53.60
35027;DHT22;60696;51.426;6.934;2023-02-28T12:18:38;5.30;54.40
35027;DHT22;60696;51.426;6.934;2023-02-28T12:27:12;5.70;53.40
35027;DHT22;60696;51.426;6.934;2023-02-28T12:35:32;5.50;54.60
35027;DHT22;60696;51.426;6.934;2023-02-28T12:38:12;6.20;53.90
35027;DHT22;60696;51.426;6.934;2023-02-28T12:40:53;5.90;52.60
35027;DHT22;60696;51.426;6.934;2023-02-28T12:43:27;6.30;53.30
35027;DHT22;60696;51.426;6.934;2023-02-28T12:46:22;5.90;53.80
35027;DHT22;60696;51.426;6.934;2023-02-28T12:49:04;6.10;53.20
35027;DHT22;60696;51.426;6.934;2023-02-28T12:51:37;5.90;54.50
35027;DHT22;60696;51.426;6.934;2023-02-28T12:54:12;5.80;53.60
35027;DHT22;60696;51.426;6.934;2023-02-28T12:59:30;6.30;53.60
35027;DHT22;60696;51.426;6.934;2023-02-28T13:02:17;6.20;53.70
35027;DHT22;60696;51.426;6.934;2023-02-28T13:07:45;6.20;54.00
35027;DHT22;60696;51.426;6.934;2023-02-28T13:10:15;6.30;53.40
35027;DHT22;60696;51.426;6.934;2023-02-28T13:12:53;6.10;53.70
35027;DHT22;60696;51.426;6.934;2023-02-28T13:15:28;5.80;54.40
35027;DHT22;60696;51.426;6.934;2023-02-28T13:18:01;5.80;54.50
35027;DHT22;60696;51.426;6.934;2023-02-28T13:20:37;5.90;56.30
35027;DHT22;60696;51.426;6.934;2023-02-28T13:23:36;6.00;54.60
35027;DHT22;60696;51.426;6.934;2023-02-28T13:26:05;5.70;55.40
35027;DHT22;60696;51.426;6.934;2023-02-28T13:34:35;5.60;56.90
35027;DHT22;60696;51.426;6.934;2023-02-28T13:48:01;5.70;58.30
35027;DHT22;60696;51.426;6.934;2023-02-28T13:50:34;5.80;57.50
35027;DHT22;60696;51.426;6.934;2023-02-28T14:01:55;5.80;57.50
35027;DHT22;60696;51.426;6.934;2023-02-28T14:04:49;5.40;58.80
35027;DHT22;60696;51.426;6.934;2023-02-28T14:07:30;5.30;58.60
35027;DHT22;60696;51.426;6.934;2023-02-28T14:10:04;5.60;61.90
35027;DHT22;60696;51.426;6.934;2023-02-28T14:18:02;5.70;62.70
35027;DHT22;60696;51.426;6.934;2023-02-28T14:20:33;5.90;63.00
35027;DHT22;60696;51.426;6.934;2023-02-28T14:23:10;5.70;62.50
35027;DHT22;60696;51.426;6.934;2023-02-28T14:25:48;5.60;63.60
35027;DHT22;60696;51.426;6.934;2023-02-28T14:28:43;5.50;63.60
35027;DHT22;60696;51.426;6.934;2023-02-28T14:31:32;5.30;64.80
35027;DHT22;60696;51.426;6.934;2023-02-28T14:36:49;5.60;64.60
35027;DHT22;60696;51.426;6.934;2023-02-28T14:39:25;5.70;66.10
35027;DHT22;60696;51.426;6.934;2023-02-28T14:41:51;5.40;66.00
35027;DHT22;60696;51.426;6.934;2023-02-28T14:44:22;5.40;67.10
35027;DHT22;60696;51.426;6.934;2023-02-28T14:47:00;5.60;67.70
35027;DHT22;60696;51.426;6.934;2023-02-28T14:49:41;5.60;65.30
35027;DHT22;60696;51.426;6.934;2023-02-28T14:52:27;5.50;65.80
35027;DHT22;60696;51.426;6.934;2023-02-28T14:55:15;5.40;65.90
35027;DHT22;60696;51.426;6.934;2023-02-28T14:57:54;5.40;65.30
35027;DHT22;60696;51.426;6.934;2023-02-28T15:00:27;5.40;67.00
35027;DHT22;60696;51.426;6.934;2023-02-28T15:02:54;5.50;65.80
35027;DHT22;60696;51.426;6.934;2023-02-28T15:05:33;5.40;66.60
35027;DHT22;60696;51.426;6.934;2023-02-28T15:08:25;5.40;67.30
35027;DHT22;60696;51.426;6.934;2023-02-28T15:10:59;5.40;67.50
35027;DHT22;60696;51.426;6.934;2023-02-28T15:13:46;5.20;68.70
35027;DHT22;60696;51.426;6.934;2023-02-28T15:16:30;5.30;68.70
35027;DHT22;60696;51.426;6.934;2023-02-28T15:19:04;5.30;69.50
35027;DHT22;60696;51.426;6.934;2023-02-28T15:24:08;5.10;69.10
35027;DHT22;60696;51.426;6.934;2023-02-28T15:26:39;5.00;69.30
35027;DHT22;60696;51.426;6.934;2023-02-28T15:29:12;5.10;71.60
35027;DHT22;60696;51.426;6.934;2023-02-28T15:32:05;5.00;71.30
35027;DHT22;60696;51.426;6.934;2023-02-28T15:34:41;5.00;71.10
35027;DHT22;60696;51.426;6.934;2023-02-28T15:37:26;4.90;71.10
35027;DHT22;60696;51.426;6.934;2023-02-28T15:39:54;4.90;71.50
35027;DHT22;60696;51.426;6.934;2023-02-28T15:42:28;5.00;70.00
35027;DHT22;60696;51.426;6.934;2023-02-28T15:45:00;5.00;69.20
35027;DHT22;60696;51.426;6.934;2023-02-28T15:47:31;5.00;69.60
35027;DHT22;60696;51.426;6.934;2023-02-28T15:50:09;5.00;70.50
35027;DHT22;60696;51.426;6.934;2023-02-28T15:52:47;5.10;70.40
35027;DHT22;60696;51.426;6.934;2023-02-28T15:55:25;5.10;70.90
35027;DHT22;60696;51.426;6.934;2023-02-28T15:57:54;5.10;71.70
35027;DHT22;60696;51.426;6.934;2023-02-28T16:00:23;5.00;72.10
35027;DHT22;60696;51.426;6.934;2023-02-28T16:02:50;5.10;73.10
35027;DHT22;60696;51.426;6.934;2023-02-28T16:05:23;5.00;73.10
35027;DHT22;60696;51.426;6.934;2023-02-28T16:07:54;4.80;74.80
35027;DHT22;60696;51.426;6.934;2023-02-28T16:10:24;4.90;75.70
35027;DHT22;60696;51.426;6.934;2023-02-28T16:12:53;4.90;77.80
35027;DHT22;60696;51.426;6.934;2023-02-28T16:15:28;5.00;78.50
35027;DHT22;60696;51.426;6.934;2023-02-28T16:17:55;4.90;79.50
35027;DHT22;60696;51.426;6.934;2023-02-28T16:20:27;4.80;80.80
35027;DHT22;60696;51.426;6.934;2023-02-28T16:22:53;4.80;81.40
35027;DHT22;60696;51.426;6.934;2023-02-28T16:25:37;4.70;81.60
35027;DHT22;60696;51.426;6.934;2023-02-28T16:28:03;4.70;81.40
35027;DHT22;60696;51.426;6.934;2023-02-28T16:30:31;4.80;82.30
35027;DHT22;60696;51.426;6.934;2023-02-28T16:32:57;4.80;81.80
35027;DHT22;60696;51.426;6.934;2023-02-28T16:35:23;4.60;81.20
35027;DHT22;60696;51.426;6.934;2023-02-28T16:37:52;4.50;82.40
35027;DHT22;60696;51.426;6.934;2023-02-28T16:40:23;4.40;82.70
35027;DHT22;60696;51.426;6.934;2023-02-28T16:42:52;4.50;84.30
35027;DHT22;60696;51.426;6.934;2023-02-28T16:45:22;4.50;84.10
35027;DHT22;60696;51.426;6.934;2023-02-28T16:47:48;4.50;85.10
35027;DHT22;60696;51.426;6.934;2023-02-28T16:50:26;4.50;85.10
35027;DHT22;60696;51.426;6.934;2023-02-28T16:52:52;4.40;84.50
35027;DHT22;60696;51.426;6.934;2023-02-28T16:55:19;4.40;84.90
35027;DHT22;60696;51.426;6.934;2023-02-28T16:57:54;4.20;84.90
35027;DHT22;60696;51.426;6.934;2023-02-28T17:00:24;4.20;85.40
35027;DHT22;60696;51.426;6.934;2023-02-28T17:02:53;4.20;84.80
35027;DHT22;60696;51.426;6.934;2023-02-28T17:05:19;4.20;86.10
35027;DHT22;60696;51.426;6.934;2023-02-28T17:07:46;4.20;85.60
35027;DHT22;60696;51.426;6.934;2023-02-28T17:10:16;4.10;86.60
35027;DHT22;60696;51.426;6.934;2023-02-28T17:12:42;4.00;87.10
35027;DHT22;60696;51.426;6.934;2023-02-28T17:15:13;4.10;87.40
35027;DHT22;60696;51.426;6.934;2023-02-28T17:17:40;4.00;87.80
35027;DHT22;60696;51.426;6.934;2023-02-28T17:20:18;4.00;88.90
35027;DHT22;60696;51.426;6.934;2023-02-28T17:22:50;4.10;89.60
35027;DHT22;60696;51.426;6.934;2023-02-28T17:25:16;3.90;88.20
35027;DHT22;60696;51.426;6.934;2023-02-28T17:27:42;3.90;89.10
35027;DHT22;60696;51.426;6.934;2023-02-28T17:30:23;3.90;89.70
35027;DHT22;60696;51.426;6.934;2023-02-28T17:32:49;3.90;90.40
35027;DHT22;60696;51.426;6.934;2023-02-28T17:35:18;3.90;90.30
35027;DHT22;60696;51.426;6.934;2023-02-28T17:37:43;3.90;90.50
35027;DHT22;60696;51.426;6.934;2023-02-28T17:40:16;3.90;90.70
35027;DHT22;60696;51.426;6.934;2023-02-28T17:42:43;3.80;90.90
35027;DHT22;60696;51.426;6.934;2023-02-28T17:45:13;3.80;91.20
35027;DHT22;60696;51.426;6.934;2023-02-28T17:47:43;3.80;92.00
35027;DHT22;60696;51.426;6.934;2023-02-28T17:50:31;3.60;92.50
35027;DHT22;60696;51.426;6.934;2023-02-28T17:52:57;3.70;93.00
35027;DHT22;60696;51.426;6.934;2023-02-28T17:55:23;3.70;93.20
35027;DHT22;60696;51.426;6.934;2023-02-28T17:57:52;3.60;93.50
35027;DHT22;60696;51.426;6.934;2023-02-28T18:00:24;3.60;94.00
35027;DHT22;60696;51.426;6.934;2023-02-28T18:02:52;3.60;94.30
35027;DHT22;60696;51.426;6.934;2023-02-28T18:05:18;3.60;94.80
35027;DHT22;60696;51.426;6.934;2023-02-28T18:07:43;3.50;95.10
35027;DHT22;60696;51.426;6.934;2023-02-28T18:10:22;3.30;95.90
35027;DHT22;60696;51.426;6.934;2023-02-28T18:12:51;3.40;96.40
35027;DHT22;60696;51.426;6.934;2023-02-28T18:15:21;3.40;96.30
35027;DHT22;60696;51.426;6.934;2023-02-28T18:17:50;3.50;96.30
35027;DHT22;60696;51.426;6.934;2023-02-28T18:20:16;3.40;96.50